WZZ55T EPBY-EPBY
Flight info
| Callsign | WZZ55T |
|---|---|
| Flight time | N/A |
| Altitude | 4000 |
| Route | EPBY/EPBY |
| Aircraft | A21N/M-V/N |
Departure
| Time | 2026-05-05 20:38 |
|---|---|
| Airport | Ignacy Jan Paderewski Bydgoszcz Airport (EPBY) |
Arrival
| Time | N/A |
|---|---|
| Airport | Ignacy Jan Paderewski Bydgoszcz Airport (EPBY) |
| Time | Latitude | Longitude | Altitude | Speed | Heading |
|---|---|---|---|---|---|
| 2026-05-05 20:31 | 53.09229 | 17.96215 | 244 ft | 0 kts | 316° |
| 2026-05-05 20:36 | 53.09232 | 17.96211 | 244 ft | 3 kts | 317° |
| 2026-05-05 20:36 | 53.09278 | 17.96115 | 241 ft | 17 kts | 262° |
| 2026-05-05 20:37 | 53.09306 | 17.95971 | 240 ft | 15 kts | 351° |
| 2026-05-05 20:37 | 53.09419 | 17.95956 | 235 ft | 17 kts | 356° |
| 2026-05-05 20:37 | 53.09522 | 17.95981 | 231 ft | 10 kts | 47° |
| 2026-05-05 20:37 | 53.09556 | 17.96095 | 230 ft | 11 kts | 87° |
| 2026-05-05 20:38 | 53.09577 | 17.96551 | 228 ft | 86 kts | 81° |
| 2026-05-05 20:38 | 53.09703 | 17.98031 | 313 ft | 159 kts | 80° |
| 2026-05-05 20:38 | 53.09837 | 17.99486 | 1733 ft | 119 kts | 79° |
| 2026-05-05 20:38 | 53.09981 | 18.00966 | 2012 ft | 150 kts | 79° |
| 2026-05-05 20:39 | 53.10233 | 18.02911 | 2020 ft | 186 kts | 68° |
| 2026-05-05 20:39 | 53.11084 | 18.04522 | 1956 ft | 196 kts | 31° |
| 2026-05-05 20:39 | 53.12439 | 18.04955 | 1977 ft | 209 kts | 356° |
| 2026-05-05 20:39 | 53.13844 | 18.04108 | 1994 ft | 217 kts | 338° |
| 2026-05-05 20:40 | 53.15110 | 18.02723 | 1977 ft | 223 kts | 319° |
| 2026-05-05 20:40 | 53.15950 | 18.00543 | 1927 ft | 230 kts | 291° |
| 2026-05-05 20:40 | 53.16226 | 17.97884 | 1919 ft | 234 kts | 275° |
| 2026-05-05 20:40 | 53.16146 | 17.95218 | 1936 ft | 235 kts | 258° |
| 2026-05-05 20:41 | 53.15526 | 17.92691 | 1934 ft | 235 kts | 238° |
| 2026-05-05 20:41 | 53.14706 | 17.90379 | 1993 ft | 234 kts | 238° |
| 2026-05-05 20:41 | 53.13864 | 17.88049 | 1927 ft | 229 kts | 237° |
| 2026-05-05 20:41 | 53.12956 | 17.85978 | 2052 ft | 215 kts | 221° |
| 2026-05-05 20:42 | 53.11718 | 17.84999 | 2109 ft | 187 kts | 182° |
| 2026-05-05 20:42 | 53.10511 | 17.85416 | 1751 ft | 172 kts | 148° |
| 2026-05-05 20:42 | 53.09636 | 17.86497 | 1494 ft | 148 kts | 125° |
| 2026-05-05 20:42 | 53.09254 | 17.87971 | 1140 ft | 132 kts | 97° |
| 2026-05-05 20:43 | 53.09134 | 17.89425 | 979 ft | 124 kts | 91° |
| 2026-05-05 20:43 | 53.09150 | 17.90830 | 817 ft | 122 kts | 84° |
| 2026-05-05 20:43 | 53.09226 | 17.92245 | 716 ft | 123 kts | 81° |
| 2026-05-05 20:43 | 53.09330 | 17.93645 | 573 ft | 123 kts | 79° |
| 2026-05-05 20:44 | 53.09456 | 17.95052 | 372 ft | 123 kts | 81° |
| 2026-05-05 20:44 | 53.09572 | 17.96462 | 230 ft | 120 kts | 81° |
| 2026-05-05 20:44 | 53.09679 | 17.97732 | 228 ft | 114 kts | 82° |
| 2026-05-05 20:44 | 53.09822 | 17.99414 | 549 ft | 159 kts | 82° |
| 2026-05-05 20:45 | 53.10054 | 18.02416 | 2111 ft | 162 kts | 81° |
| 2026-05-05 20:45 | 53.10211 | 18.04442 | 2079 ft | 183 kts | 81° |
| 2026-05-05 20:45 | 53.10583 | 18.06455 | 1978 ft | 191 kts | 60° |
| 2026-05-05 20:46 | 53.11593 | 18.07930 | 1962 ft | 201 kts | 24° |
| 2026-05-05 20:46 | 53.12992 | 18.08163 | 1988 ft | 211 kts | 357° |
| 2026-05-05 20:46 | 53.14431 | 18.07536 | 1991 ft | 215 kts | 344° |
| 2026-05-05 20:46 | 53.15778 | 18.06436 | 1993 ft | 218 kts | 333° |
| 2026-05-05 20:47 | 53.16947 | 18.04782 | 1981 ft | 227 kts | 307° |
| 2026-05-05 20:47 | 53.17450 | 18.02282 | 1991 ft | 233 kts | 272° |
| 2026-05-05 20:47 | 53.17219 | 17.99626 | 1985 ft | 234 kts | 250° |
| 2026-05-05 20:47 | 53.16567 | 17.97138 | 2007 ft | 234 kts | 244° |
| 2026-05-05 20:48 | 53.15846 | 17.94701 | 2051 ft | 234 kts | 242° |
| 2026-05-05 20:48 | 53.15011 | 17.92403 | 1955 ft | 233 kts | 231° |
| 2026-05-05 20:48 | 53.13958 | 17.90380 | 1751 ft | 229 kts | 221° |
| 2026-05-05 20:48 | 53.12764 | 17.88769 | 1511 ft | 215 kts | 210° |
| 2026-05-05 20:49 | 53.11463 | 17.87757 | 1437 ft | 193 kts | 190° |
| 2026-05-05 20:49 | 53.10248 | 17.87773 | 1574 ft | 157 kts | 156° |
| 2026-05-05 20:49 | 53.09425 | 17.88696 | 1261 ft | 139 kts | 119° |
| 2026-05-05 20:49 | 53.09191 | 17.90141 | 923 ft | 125 kts | 90° |
| 2026-05-05 20:50 | 53.09209 | 17.91565 | 741 ft | 122 kts | 84° |
| 2026-05-05 20:50 | 53.09291 | 17.92965 | 636 ft | 123 kts | 81° |
| 2026-05-05 20:50 | 53.09404 | 17.94374 | 429 ft | 122 kts | 81° |
| 2026-05-05 20:50 | 53.09514 | 17.95775 | 285 ft | 123 kts | 79° |
| 2026-05-05 20:51 | 53.09627 | 17.97113 | 227 ft | 108 kts | 80° |
| 2026-05-05 20:51 | 53.09724 | 17.98274 | 228 ft | 107 kts | 83° |
| 2026-05-05 20:51 | 53.09862 | 17.99886 | 552 ft | 153 kts | 82° |
| 2026-05-05 20:51 | 53.10389 | 18.00774 | 1783 ft | 130 kts | 3° |
| 2026-05-05 20:52 | 53.11221 | 17.99865 | 2172 ft | 163 kts | 309° |
| 2026-05-05 20:52 | 53.11883 | 17.98033 | 2154 ft | 208 kts | 311° |
| 2026-05-05 20:52 | 53.13022 | 17.96591 | 2023 ft | 211 kts | 347° |
| 2026-05-05 20:52 | 53.14459 | 17.96096 | 1991 ft | 214 kts | 341° |
| 2026-05-05 20:53 | 53.15396 | 17.94138 | 1940 ft | 230 kts | 287° |
| 2026-05-05 20:53 | 53.15288 | 17.91509 | 1810 ft | 233 kts | 243° |
| 2026-05-05 20:53 | 53.14241 | 17.89657 | 1498 ft | 220 kts | 201° |
| 2026-05-05 20:53 | 53.12832 | 17.89034 | 1366 ft | 195 kts | 176° |
| 2026-05-05 20:54 | 53.11560 | 17.89288 | 1311 ft | 177 kts | 155° |
| 2026-05-05 20:54 | 53.10588 | 17.90196 | 1295 ft | 147 kts | 133° |
| 2026-05-05 20:54 | 53.09995 | 17.91461 | 956 ft | 136 kts | 112° |
| 2026-05-05 20:54 | 53.09657 | 17.92870 | 620 ft | 127 kts | 101° |
| 2026-05-05 20:55 | 53.09507 | 17.94280 | 450 ft | 123 kts | 92° |
| 2026-05-05 20:55 | 53.09517 | 17.95699 | 311 ft | 122 kts | 83° |
| 2026-05-05 20:55 | 53.09623 | 17.97045 | 227 ft | 113 kts | 82° |
| 2026-05-05 20:55 | 53.09761 | 17.98719 | 230 ft | 179 kts | 82° |
| 2026-05-05 20:56 | 53.09929 | 18.00577 | 1658 ft | 146 kts | 71° |
| 2026-05-05 20:56 | 53.10628 | 18.01023 | 2657 ft | 150 kts | 326° |
| 2026-05-05 20:56 | 53.11084 | 17.99364 | 3069 ft | 177 kts | 269° |
| 2026-05-05 20:56 | 53.10802 | 17.97310 | 3370 ft | 203 kts | 262° |
| 2026-05-05 20:57 | 53.10692 | 17.94892 | 2820 ft | 216 kts | 267° |
| 2026-05-05 20:57 | 53.10557 | 17.92354 | 2330 ft | 224 kts | 265° |
| 2026-05-05 20:57 | 53.10376 | 17.89776 | 1872 ft | 229 kts | 264° |
| 2026-05-05 20:57 | 53.10167 | 17.87123 | 1465 ft | 228 kts | 269° |
| 2026-05-05 20:58 | 53.10566 | 17.84793 | 1683 ft | 208 kts | 273° |
| 2026-05-05 20:58 | 53.09697 | 17.83707 | 2128 ft | 170 kts | 154° |
| 2026-05-05 20:58 | 53.09163 | 17.85065 | 1797 ft | 139 kts | 97° |
| 2026-05-05 20:58 | 53.09040 | 17.86630 | 1439 ft | 129 kts | 94° |
| 2026-05-05 20:59 | 53.08978 | 17.88047 | 1136 ft | 121 kts | 87° |
| 2026-05-05 20:59 | 53.08997 | 17.89370 | 1171 ft | 118 kts | 76° |
| 2026-05-05 20:59 | 53.09123 | 17.90779 | 980 ft | 127 kts | 83° |
| 2026-05-05 20:59 | 53.09222 | 17.92199 | 715 ft | 122 kts | 81° |
| 2026-05-05 21:00 | 53.09329 | 17.93583 | 546 ft | 122 kts | 79° |
| 2026-05-05 21:00 | 53.09448 | 17.94986 | 376 ft | 121 kts | 81° |
| 2026-05-05 21:00 | 53.09562 | 17.96366 | 233 ft | 118 kts | 79° |
| 2026-05-05 21:00 | 53.09666 | 17.97588 | 229 ft | 96 kts | 82° |
| 2026-05-05 21:01 | 53.09778 | 17.98933 | 322 ft | 144 kts | 80° |
| 2026-05-05 21:01 | 53.09945 | 18.00726 | 920 ft | 166 kts | 66° |
| 2026-05-05 21:01 | 53.10791 | 18.01171 | 2131 ft | 167 kts | 341° |
| 2026-05-05 21:01 | 53.11636 | 17.99406 | 2133 ft | 220 kts | 288° |
| 2026-05-05 21:02 | 53.11623 | 17.96860 | 2016 ft | 220 kts | 263° |
| 2026-05-05 21:02 | 53.11412 | 17.94346 | 1944 ft | 221 kts | 262° |
| 2026-05-05 21:02 | 53.11202 | 17.91854 | 1708 ft | 214 kts | 264° |
| 2026-05-05 21:02 | 53.11058 | 17.89469 | 1581 ft | 197 kts | 266° |
| 2026-05-05 21:03 | 53.10963 | 17.87321 | 1618 ft | 183 kts | 267° |
| 2026-05-05 21:03 | 53.10358 | 17.85746 | 1539 ft | 167 kts | 179° |
| 2026-05-05 21:03 | 53.09575 | 17.86634 | 1211 ft | 128 kts | 106° |
| 2026-05-05 21:03 | 53.09352 | 17.87938 | 1089 ft | 113 kts | 101° |
| 2026-05-05 21:04 | 53.09213 | 17.89209 | 1025 ft | 111 kts | 94° |
| 2026-05-05 21:04 | 53.09171 | 17.90504 | 937 ft | 112 kts | 88° |
| 2026-05-05 21:04 | 53.09209 | 17.91807 | 792 ft | 116 kts | 83° |
| 2026-05-05 21:04 | 53.09299 | 17.93182 | 626 ft | 121 kts | 81° |
| 2026-05-05 21:05 | 53.09407 | 17.94554 | 419 ft | 121 kts | 79° |
| 2026-05-05 21:05 | 53.09528 | 17.95951 | 267 ft | 121 kts | 79° |
| 2026-05-05 21:05 | 53.09641 | 17.97271 | 226 ft | 105 kts | 81° |
| 2026-05-05 21:05 | 53.09747 | 17.98559 | 228 ft | 144 kts | 81° |
| 2026-05-05 21:06 | 53.09948 | 18.00525 | 691 ft | 181 kts | 63° |
| 2026-05-05 21:06 | 53.10762 | 18.01318 | 2371 ft | 151 kts | 342° |
| 2026-05-05 21:06 | 53.11363 | 17.99919 | 3147 ft | 175 kts | 271° |
| 2026-05-05 21:06 | 53.10891 | 17.97918 | 3218 ft | 214 kts | 223° |
| 2026-05-05 21:07 | 53.09540 | 17.96800 | 2547 ft | 225 kts | 192° |
| 2026-05-05 21:07 | 53.08074 | 17.95876 | 2255 ft | 224 kts | 201° |
| 2026-05-05 21:07 | 53.06818 | 17.94171 | 1439 ft | 255 kts | 250° |
| 2026-05-05 21:07 | 53.07039 | 17.91656 | 1253 ft | 217 kts | 333° |
| 2026-05-05 21:08 | 53.08184 | 17.92048 | 1009 ft | 171 kts | 46° |
| 2026-05-05 21:08 | 53.08935 | 17.93438 | 720 ft | 156 kts | 56° |
| 2026-05-05 21:08 | 53.09404 | 17.95010 | 411 ft | 145 kts | 70° |
| 2026-05-05 21:08 | 53.09579 | 17.96553 | 237 ft | 127 kts | 80° |
| 2026-05-05 21:09 | 53.09694 | 17.97888 | 228 ft | 109 kts | 82° |
| 2026-05-05 21:09 | 53.09826 | 17.99500 | 229 ft | 177 kts | 82° |
| 2026-05-05 21:09 | 53.09580 | 18.01066 | 1697 ft | 146 kts | 159° |
| 2026-05-05 21:09 | 53.08790 | 18.00190 | 2266 ft | 169 kts | 249° |
| 2026-05-05 21:10 | 53.08430 | 17.97991 | 1915 ft | 220 kts | 252° |
| 2026-05-05 21:10 | 53.07974 | 17.95568 | 1552 ft | 218 kts | 253° |
| 2026-05-05 21:10 | 53.07589 | 17.93177 | 1227 ft | 208 kts | 257° |
| 2026-05-05 21:10 | 53.07297 | 17.91036 | 1280 ft | 172 kts | 257° |
| 2026-05-05 21:11 | 53.07065 | 17.89224 | 1123 ft | 153 kts | 263° |
| 2026-05-05 21:11 | 53.06975 | 17.87530 | 845 ft | 141 kts | 276° |
| 2026-05-05 21:11 | 53.07296 | 17.86165 | 749 ft | 121 kts | 338° |
| 2026-05-05 21:11 | 53.08019 | 17.86229 | 942 ft | 104 kts | 26° |
| 2026-05-05 21:12 | 53.08625 | 17.86865 | 798 ft | 107 kts | 19° |
| 2026-05-05 21:12 | 53.09391 | 17.86893 | 739 ft | 118 kts | 333° |